createdAt,value
2019-06-10T00:02:21.449Z,99.90
2019-06-10T00:04:50.844Z,99.90
2019-06-10T00:07:21.113Z,99.90
2019-06-10T00:09:51.200Z,99.90
2019-06-10T00:12:20.961Z,99.90
2019-06-10T00:14:50.983Z,99.90
2019-06-10T00:17:21.382Z,99.90
2019-06-10T00:19:51.147Z,99.90
2019-06-10T00:22:21.559Z,99.70
2019-06-10T00:24:52.250Z,99.70
2019-06-10T00:27:21.626Z,99.90
2019-06-10T00:29:51.310Z,99.90
2019-06-10T00:32:21.481Z,99.90
2019-06-10T00:34:50.897Z,99.90
2019-06-10T00:37:21.163Z,99.90
2019-06-10T00:39:51.214Z,99.90
2019-06-10T00:42:21.421Z,99.90
2019-06-10T00:44:50.971Z,99.90
2019-06-10T00:47:21.189Z,99.90
2019-06-10T00:49:51.499Z,99.90
2019-06-10T00:52:21.319Z,99.90
2019-06-10T00:54:51.858Z,99.90
2019-06-10T00:57:21.071Z,99.90
2019-06-10T00:59:50.817Z,99.90
2019-06-10T01:02:21.371Z,99.90
2019-06-10T01:04:51.391Z,99.90
2019-06-10T01:07:21.792Z,99.90
2019-06-10T01:09:51.723Z,99.90
2019-06-10T01:12:21.185Z,99.90
2019-06-10T01:15:07.424Z,99.90
2019-06-10T01:17:36.471Z,99.90
2019-06-10T01:20:07.818Z,99.90
2019-06-10T01:22:36.840Z,99.90
2019-06-10T01:25:07.205Z,99.90
2019-06-10T01:27:36.221Z,99.90
2019-06-10T01:30:16.651Z,99.90
2019-06-10T01:32:41.492Z,99.90
2019-06-10T01:35:11.535Z,99.90
2019-06-10T01:37:41.352Z,99.90
2019-06-10T01:40:14.531Z,99.90
2019-06-10T01:42:41.416Z,99.90
2019-06-10T01:45:11.515Z,99.90
2019-06-10T01:47:41.673Z,99.90
2019-06-10T01:50:12.579Z,99.90
2019-06-10T01:52:41.387Z,99.90
2019-06-10T01:55:12.635Z,99.90
2019-06-10T01:57:41.397Z,99.90
2019-06-10T02:00:15.897Z,99.90
2019-06-10T02:02:44.655Z,99.90
2019-06-10T02:05:14.915Z,99.90
2019-06-10T02:07:43.338Z,99.90
2019-06-10T02:10:15.624Z,99.90
2019-06-10T02:12:42.888Z,99.90
2019-06-10T02:15:37.402Z,99.90
2019-06-10T02:18:06.347Z,99.90
2019-06-10T02:20:35.302Z,99.90
2019-06-10T02:23:04.371Z,99.90
2019-06-10T02:25:33.194Z,99.90
2019-06-10T02:28:02.109Z,99.90
2019-06-10T02:30:44.158Z,99.90
2019-06-10T02:33:02.548Z,99.90
2019-06-10T02:35:43.304Z,99.90
2019-06-10T02:38:03.532Z,99.90
2019-06-10T02:40:36.429Z,99.90
2019-06-10T02:43:04.098Z,99.90
2019-06-10T02:45:37.278Z,99.90
2019-06-10T02:48:04.304Z,99.90
2019-06-10T02:50:54.921Z,99.90
2019-06-10T02:53:30.125Z,99.90
2019-06-10T02:55:54.413Z,99.90
2019-06-10T02:58:28.630Z,99.90
2019-06-10T03:00:54.755Z,99.90
2019-06-10T03:03:35.958Z,99.90
2019-06-10T03:05:54.364Z,99.90
2019-06-10T03:08:27.330Z,99.90
2019-06-10T03:10:54.848Z,99.90
2019-06-10T03:13:25.587Z,99.90
2019-06-10T03:16:43.689Z,99.90
2019-06-10T03:19:13.415Z,99.90
2019-06-10T03:21:42.997Z,99.90
2019-06-10T03:24:13.196Z,99.90
2019-06-10T03:26:42.891Z,99.90
2019-06-10T03:29:12.929Z,99.90
2019-06-10T03:31:47.583Z,99.90
2019-06-10T03:34:14.910Z,99.90
2019-06-10T03:36:43.410Z,99.90
2019-06-10T03:39:13.417Z,99.90
2019-06-10T03:41:42.522Z,99.90
2019-06-10T03:44:13.105Z,99.90
2019-06-10T03:46:43.076Z,99.90
2019-06-10T03:49:12.790Z,99.90
2019-06-10T03:51:42.761Z,99.90
2019-06-10T03:54:14.577Z,99.90
2019-06-10T03:56:43.477Z,99.90
2019-06-10T03:59:12.497Z,99.90
2019-06-10T04:01:42.616Z,99.90
2019-06-10T04:04:13.724Z,99.90
2019-06-10T04:06:44.214Z,99.90
2019-06-10T04:09:13.467Z,99.90
2019-06-10T04:11:44.197Z,99.90
2019-06-10T04:14:13.355Z,99.90
2019-06-10T04:17:17.585Z,99.90
2019-06-10T04:19:46.674Z,99.90
2019-06-10T04:22:15.555Z,99.90
2019-06-10T04:24:44.570Z,99.90
2019-06-10T04:27:13.526Z,99.90
2019-06-10T04:29:42.446Z,99.90
2019-06-10T04:32:12.226Z,99.90
2019-06-10T04:34:43.340Z,99.90
2019-06-10T04:37:12.449Z,99.90
2019-06-10T04:39:42.749Z,99.90
2019-06-10T04:42:12.999Z,99.90
2019-06-10T04:44:42.362Z,99.90
2019-06-10T04:47:12.043Z,99.90
2019-06-10T04:49:42.869Z,99.90
2019-06-10T04:52:12.295Z,99.90
2019-06-10T04:54:42.149Z,99.90
2019-06-10T04:57:12.791Z,99.90
2019-06-10T04:59:42.945Z,99.90
2019-06-10T05:02:12.777Z,99.90
2019-06-10T05:04:44.602Z,99.90
2019-06-10T05:07:13.506Z,99.90
2019-06-10T05:09:42.445Z,99.90
2019-06-10T05:12:12.087Z,99.90
2019-06-10T05:14:43.253Z,99.90
2019-06-10T05:17:12.747Z,99.90
2019-06-10T05:19:42.869Z,99.90
2019-06-10T05:22:12.471Z,99.90
2019-06-10T05:24:42.447Z,99.90
2019-06-10T05:27:12.547Z,99.90
2019-06-10T05:29:42.194Z,99.90
2019-06-10T05:32:12.731Z,99.90
2019-06-10T05:34:43.741Z,99.90
2019-06-10T05:37:12.442Z,99.90
2019-06-10T05:39:42.428Z,99.90
2019-06-10T05:42:12.739Z,99.90
2019-06-10T05:44:43.085Z,99.90
2019-06-10T05:47:12.730Z,99.90
2019-06-10T05:49:43.144Z,99.90
2019-06-10T05:52:12.595Z,99.90
2019-06-10T05:54:43.141Z,99.90
2019-06-10T05:57:12.238Z,99.90
2019-06-10T05:59:43.158Z,99.90
2019-06-10T06:02:12.872Z,99.90
2019-06-10T06:04:42.815Z,99.90
2019-06-10T06:07:12.870Z,99.90
2019-06-10T06:09:42.676Z,99.90
2019-06-10T06:12:14.143Z,99.90
2019-06-10T06:14:43.595Z,99.90
2019-06-10T06:17:14.704Z,99.90
2019-06-10T06:20:02.784Z,99.90
2019-06-10T06:22:33.772Z,99.90
2019-06-10T06:25:04.010Z,99.90
2019-06-10T06:27:33.869Z,99.90
2019-06-10T06:30:11.071Z,99.90
2019-06-10T06:32:38.187Z,99.90
2019-06-10T06:35:07.210Z,99.90
2019-06-10T06:37:38.042Z,99.90
2019-06-10T06:40:06.634Z,99.90
2019-06-10T06:42:37.056Z,99.90
2019-06-10T06:45:07.173Z,99.90
2019-06-10T06:47:37.373Z,99.90
2019-06-10T06:50:07.569Z,99.90
2019-06-10T06:53:10.193Z,99.90
2019-06-10T06:55:07.180Z,99.90
2019-06-10T06:57:37.210Z,99.90
2019-06-10T07:00:34.172Z,99.90
2019-06-10T07:02:43.579Z,99.90
2019-06-10T07:05:12.641Z,99.90
2019-06-10T07:07:43.382Z,99.90
2019-06-10T07:10:12.342Z,99.90
2019-06-10T07:12:43.817Z,99.90
2019-06-10T07:15:13.390Z,99.90
2019-06-10T07:17:45.455Z,99.90
2019-06-10T07:20:32.683Z,99.90
2019-06-10T07:23:03.422Z,99.90
2019-06-10T07:25:35.685Z,99.90
2019-06-10T07:28:02.931Z,99.90
2019-06-10T07:30:36.961Z,99.90
2019-06-10T07:33:03.014Z,99.90
2019-06-10T07:35:33.011Z,99.90
2019-06-10T07:38:03.288Z,99.90
2019-06-10T07:40:33.510Z,99.90
2019-06-10T07:43:03.528Z,99.90
2019-06-10T07:45:37.769Z,99.90
2019-06-10T07:48:08.931Z,99.90
2019-06-10T07:50:39.013Z,99.90
2019-06-10T07:53:08.167Z,99.90
2019-06-10T07:55:39.528Z,99.90
2019-06-10T07:58:08.702Z,99.90
2019-06-10T08:00:38.926Z,99.90
2019-06-10T08:03:12.794Z,99.90
2019-06-10T08:05:44.411Z,99.90
2019-06-10T08:08:13.044Z,99.90
2019-06-10T08:10:44.755Z,99.90
2019-06-10T08:13:12.521Z,99.90
2019-06-10T08:15:44.239Z,99.90
2019-06-10T08:18:13.144Z,99.90
2019-06-10T08:20:57.321Z,99.90
2019-06-10T08:23:26.188Z,99.90
2019-06-10T08:25:57.808Z,99.90
2019-06-10T08:28:25.531Z,99.90
2019-06-10T08:30:54.419Z,99.90
2019-06-10T08:33:23.371Z,99.90
2019-06-10T08:35:59.344Z,99.90
2019-06-10T08:38:23.169Z,99.90
2019-06-10T08:40:52.564Z,99.90
2019-06-10T08:43:22.640Z,99.90
2019-06-10T08:45:52.911Z,99.90
2019-06-10T08:48:22.893Z,99.90
2019-06-10T08:50:53.288Z,99.90
2019-06-10T08:53:22.690Z,99.90
2019-06-10T08:55:53.502Z,99.60
2019-06-10T08:58:23.248Z,99.90
2019-06-10T09:00:53.677Z,98.80
2019-06-10T09:03:23.393Z,99.50
2019-06-10T09:05:54.435Z,99.90
2019-06-10T09:08:24.043Z,99.90
2019-06-10T09:10:55.020Z,99.60
2019-06-10T09:13:23.563Z,99.30
2019-06-10T09:16:09.656Z,98.60
2019-06-10T09:18:24.063Z,98.40
2019-06-10T09:21:10.186Z,97.40
2019-06-10T09:23:43.505Z,97.30
2019-06-10T09:26:12.535Z,97.20
2019-06-10T09:28:48.284Z,96.80
2019-06-10T09:31:13.976Z,95.90
2019-06-10T09:33:49.858Z,96.10
2019-06-10T09:36:13.605Z,96.10
2019-06-10T09:38:46.801Z,96.40
2019-06-10T09:41:14.204Z,96.80
2019-06-10T09:43:48.919Z,97.10
2019-06-10T09:46:16.126Z,96.90
2019-06-10T09:48:48.588Z,97.20
2019-06-10T09:51:15.531Z,97.10
2019-06-10T09:54:01.108Z,97.30
2019-06-10T09:56:17.855Z,97.40
2019-06-10T09:58:49.333Z,97.40
2019-06-10T10:01:17.453Z,97.90
2019-06-10T10:03:50.212Z,98.20
2019-06-10T10:06:16.774Z,98.30
2019-06-10T10:08:49.801Z,98.50
2019-06-10T10:11:16.324Z,99.20
2019-06-10T10:13:47.686Z,98.80
2019-06-10T10:16:15.776Z,98.90
2019-06-10T10:18:47.355Z,98.70
2019-06-10T10:21:16.205Z,98.60
2019-06-10T10:23:53.943Z,98.90
2019-06-10T10:26:18.941Z,99.10
2019-06-10T10:28:49.915Z,98.90
2019-06-10T10:31:18.535Z,99.50
2019-06-10T10:33:48.422Z,99.90
2019-06-10T10:36:17.592Z,99.90
2019-06-10T10:38:50.752Z,99.30
2019-06-10T10:41:19.843Z,99.90
2019-06-10T10:43:51.256Z,99.80
2019-06-10T10:46:19.429Z,99.70
2019-06-10T10:48:49.011Z,99.50
2019-06-10T10:51:22.889Z,99.90
2019-06-10T10:54:16.937Z,99.90
2019-06-10T10:56:22.329Z,99.90
2019-06-10T10:58:55.600Z,99.90
2019-06-10T11:01:23.557Z,99.90
2019-06-10T11:03:56.943Z,99.90
2019-06-10T11:06:23.466Z,99.90
2019-06-10T11:08:57.102Z,99.90
2019-06-10T11:11:23.874Z,99.90
2019-06-10T11:13:56.596Z,99.90
2019-06-10T11:16:23.382Z,99.90
2019-06-10T11:18:56.182Z,99.90
2019-06-10T11:21:23.156Z,99.90
2019-06-10T11:23:57.417Z,99.90
2019-06-10T11:26:26.879Z,99.90
2019-06-10T11:28:55.769Z,99.90
2019-06-10T11:31:24.947Z,99.90
2019-06-10T11:33:57.242Z,99.90
2019-06-10T11:36:24.500Z,99.90
2019-06-10T11:38:55.566Z,99.90
2019-06-10T11:41:24.055Z,99.90
2019-06-10T11:43:56.069Z,99.90
2019-06-10T11:46:23.547Z,99.90
2019-06-10T11:48:55.637Z,99.90
2019-06-10T11:51:23.570Z,99.90
2019-06-10T11:53:54.601Z,99.90
2019-06-10T11:56:23.170Z,99.90
2019-06-10T11:58:55.132Z,99.90
2019-06-10T12:01:23.032Z,99.90
2019-06-10T12:03:54.059Z,99.90
2019-06-10T12:06:22.946Z,99.90
2019-06-10T12:08:57.490Z,99.90
2019-06-10T12:11:23.102Z,99.90
2019-06-10T12:13:57.820Z,99.90
2019-06-10T12:18:56.990Z,99.90
2019-06-10T12:21:25.508Z,99.90
2019-06-10T12:23:58.595Z,99.90
2019-06-10T12:26:25.565Z,99.90
2019-06-10T12:28:59.390Z,99.90
2019-06-10T12:31:27.801Z,99.90
2019-06-10T12:33:57.655Z,99.90
2019-06-10T12:36:27.234Z,99.90
2019-06-10T12:39:01.446Z,99.90
2019-06-10T12:41:26.781Z,99.90
2019-06-10T12:43:56.681Z,99.90
2019-06-10T12:46:26.520Z,99.90
2019-06-10T12:48:58.181Z,99.90
2019-06-10T12:51:26.550Z,99.90
2019-06-10T12:54:15.049Z,99.90
2019-06-10T12:56:43.887Z,99.90
2019-06-10T12:59:13.557Z,99.90
2019-06-10T13:01:44.805Z,99.90
2019-06-10T13:04:13.942Z,99.90
2019-06-10T13:06:43.075Z,99.90
2019-06-10T13:09:12.911Z,99.90
2019-06-10T13:11:43.330Z,99.90
2019-06-10T13:14:13.040Z,99.90
2019-06-10T13:16:43.322Z,99.90
2019-06-10T13:19:13.187Z,99.90
2019-06-10T13:21:42.702Z,99.90
2019-06-10T13:24:13.758Z,99.90
2019-06-10T13:26:43.157Z,99.90
2019-06-10T13:29:16.916Z,99.90
2019-06-10T13:31:43.488Z,99.90
2019-06-10T13:34:14.684Z,99.90
2019-06-10T13:36:43.755Z,99.90
2019-06-10T13:39:13.484Z,99.90
2019-06-10T13:41:43.873Z,99.90
2019-06-10T13:44:16.490Z,99.90
2019-06-10T13:46:43.649Z,99.90
2019-06-10T13:49:15.243Z,99.90
2019-06-10T13:51:43.949Z,99.90
2019-06-10T13:54:14.023Z,99.90
2019-06-10T13:56:47.567Z,99.90
2019-06-10T13:59:14.335Z,99.90
2019-06-10T14:01:45.078Z,99.90
2019-06-10T14:04:21.580Z,99.90
2019-06-10T14:06:49.919Z,99.90
2019-06-10T14:09:16.593Z,99.90
2019-06-10T14:11:45.763Z,99.90
2019-06-10T14:14:17.877Z,99.90
2019-06-10T14:16:45.421Z,99.90
2019-06-10T14:19:16.354Z,99.90
2019-06-10T14:21:44.796Z,99.90
2019-06-10T14:24:15.959Z,99.90
2019-06-10T14:26:45.636Z,99.90
2019-06-10T14:29:16.114Z,99.90
2019-06-10T14:31:47.728Z,99.90
2019-06-10T14:34:18.558Z,99.90
2019-06-10T14:36:46.898Z,99.90
2019-06-10T14:39:16.062Z,99.90
2019-06-10T14:41:45.061Z,99.90
2019-06-10T14:44:17.190Z,99.90
2019-06-10T14:46:44.648Z,99.90
2019-06-10T14:49:15.290Z,99.90
2019-06-10T14:51:43.979Z,99.90
2019-06-10T14:54:16.356Z,99.90
2019-06-10T14:56:52.952Z,99.90
2019-06-10T14:59:15.990Z,99.90
2019-06-10T15:01:44.506Z,99.90
2019-06-10T15:04:16.065Z,99.90
2019-06-10T15:06:44.254Z,99.90
2019-06-10T15:09:13.676Z,99.90
2019-06-10T15:11:42.892Z,99.90
2019-06-10T15:14:14.219Z,99.90
2019-06-10T15:16:43.887Z,99.90
2019-06-10T15:19:20.005Z,99.90
2019-06-10T15:21:43.693Z,99.90
2019-06-10T15:24:12.767Z,99.90
2019-06-10T15:26:42.871Z,99.90
2019-06-10T15:29:15.635Z,99.90
2019-06-10T15:31:42.931Z,99.90
2019-06-10T15:34:14.985Z,99.90
2019-06-10T15:36:43.267Z,99.90
2019-06-10T15:39:16.446Z,99.90
2019-06-10T15:41:43.017Z,99.90
2019-06-10T15:44:14.655Z,99.90
2019-06-10T15:46:43.206Z,99.90
2019-06-10T15:49:16.362Z,99.90
2019-06-10T15:51:43.522Z,99.90
2019-06-10T15:54:14.020Z,99.90
2019-06-10T15:56:52.010Z,99.90
2019-06-10T15:59:15.374Z,99.90
2019-06-10T16:01:44.337Z,99.90
2019-06-10T16:04:15.699Z,99.90
2019-06-10T16:06:43.915Z,99.90
2019-06-10T16:09:14.169Z,99.90
2019-06-10T16:11:43.701Z,99.90
2019-06-10T16:14:14.656Z,99.90
2019-06-10T16:16:43.654Z,99.90
2019-06-10T16:19:13.333Z,99.90
2019-06-10T16:21:43.400Z,99.90
2019-06-10T16:24:14.741Z,99.90
2019-06-10T16:26:43.151Z,99.90
2019-06-10T16:29:12.441Z,99.90
2019-06-10T16:31:42.613Z,99.90
2019-06-10T16:34:12.751Z,99.90
2019-06-10T16:36:42.766Z,99.90
2019-06-10T16:39:12.516Z,99.90
2019-06-10T16:41:43.082Z,99.90
2019-06-10T16:44:13.559Z,99.90
2019-06-10T16:46:43.224Z,99.90
2019-06-10T16:49:12.869Z,99.90
2019-06-10T16:51:42.971Z,99.90
2019-06-10T16:54:12.973Z,99.90
2019-06-10T16:56:43.487Z,99.90
2019-06-10T16:59:15.613Z,99.90
2019-06-10T17:01:44.478Z,99.90
2019-06-10T17:04:13.304Z,99.90
2019-06-10T17:06:42.344Z,99.90
2019-06-10T17:09:13.490Z,99.90
2019-06-10T17:11:42.764Z,99.90
2019-06-10T17:14:12.579Z,99.90
2019-06-10T17:16:41.815Z,99.90
2019-06-10T17:19:10.913Z,99.90
2019-06-10T17:21:42.043Z,99.90
2019-06-10T17:24:12.610Z,99.90
2019-06-10T17:26:42.597Z,99.90
2019-06-10T17:29:11.695Z,99.90
2019-06-10T17:31:42.593Z,99.90
2019-06-10T17:34:13.164Z,99.90
2019-06-10T17:36:43.272Z,99.90
2019-06-10T17:39:12.612Z,99.90
2019-06-10T17:41:42.657Z,99.90
2019-06-10T17:44:13.094Z,99.90
2019-06-10T17:46:42.696Z,99.90
2019-06-10T17:49:13.049Z,99.90
2019-06-10T17:51:43.313Z,99.90
2019-06-10T17:54:13.064Z,99.90
2019-06-10T17:56:42.633Z,99.90
2019-06-10T17:59:12.804Z,99.90
2019-06-10T18:01:42.024Z,99.90
2019-06-10T18:04:12.847Z,99.90
2019-06-10T18:06:42.458Z,99.90
2019-06-10T18:09:12.257Z,99.90
2019-06-10T18:11:42.883Z,99.90
2019-06-10T18:14:12.295Z,99.90
2019-06-10T18:16:42.681Z,99.90
2019-06-10T18:19:11.861Z,99.90
2019-06-10T18:21:40.890Z,99.90
2019-06-10T18:24:12.572Z,99.90
2019-06-10T18:26:42.393Z,99.90
2019-06-10T18:29:12.831Z,99.90
2019-06-10T18:31:42.695Z,99.90
2019-06-10T18:34:13.112Z,99.90
2019-06-10T18:36:42.736Z,99.90
2019-06-10T18:39:12.470Z,99.90
2019-06-10T18:41:42.002Z,99.90
2019-06-10T18:44:22.629Z,99.90
2019-06-10T18:46:43.336Z,99.90
2019-06-10T18:49:13.226Z,99.90
2019-06-10T18:51:43.467Z,99.90
2019-06-10T18:54:12.912Z,99.90
2019-06-10T18:56:43.059Z,99.90
2019-06-10T18:59:19.886Z,99.90
2019-06-10T19:01:42.984Z,99.90
2019-06-10T19:04:13.022Z,99.90
2019-06-10T19:06:43.112Z,99.90
2019-06-10T19:09:12.962Z,99.90
2019-06-10T19:11:43.422Z,99.90
2019-06-10T19:14:12.943Z,99.90
2019-06-10T19:16:42.941Z,99.90
2019-06-10T19:19:12.675Z,99.90
2019-06-10T19:21:43.906Z,99.90
2019-06-10T19:24:12.936Z,99.90
2019-06-10T19:26:44.820Z,99.90
2019-06-10T19:29:14.831Z,99.90
2019-06-10T19:31:45.940Z,99.90
2019-06-10T19:34:13.547Z,99.90
2019-06-10T19:36:42.445Z,99.90
2019-06-10T19:39:13.129Z,99.90
2019-06-10T19:41:47.018Z,99.90
2019-06-10T19:44:13.132Z,99.90
2019-06-10T19:46:42.957Z,99.90
2019-06-10T19:49:13.344Z,99.90
2019-06-10T19:51:44.875Z,99.90
2019-06-10T19:54:20.789Z,99.90
2019-06-10T19:56:52.218Z,99.90
2019-06-10T19:59:22.975Z,99.90
2019-06-10T20:01:51.120Z,99.90
2019-06-10T20:04:22.507Z,99.90
2019-06-10T20:06:53.560Z,99.90
2019-06-10T20:09:22.630Z,99.90
2019-06-10T20:11:51.891Z,99.90
2019-06-10T20:14:20.867Z,99.90
2019-06-10T20:16:52.482Z,99.90
2019-06-10T20:19:22.397Z,99.90
2019-06-10T20:21:51.087Z,99.90
2019-06-10T20:24:22.087Z,99.90
2019-06-10T20:33:43.073Z,99.90
2019-06-10T20:36:26.643Z,99.90
2019-06-10T20:39:32.938Z,99.90
2019-06-10T20:44:47.446Z,99.90
2019-06-10T20:47:16.452Z,99.90
2019-06-10T20:49:47.494Z,99.90
2019-06-10T20:52:16.289Z,99.90
2019-06-10T20:54:46.973Z,99.90
2019-06-10T20:57:15.824Z,99.90
2019-06-10T20:59:46.437Z,99.90
2019-06-10T21:02:15.596Z,99.90
2019-06-10T21:04:46.459Z,99.90
2019-06-10T21:07:16.751Z,99.90
2019-06-10T21:09:47.474Z,99.90
2019-06-10T21:12:16.812Z,99.90
2019-06-10T21:14:46.896Z,99.90
2019-06-10T21:17:16.398Z,99.90
2019-06-10T21:19:46.410Z,99.90
2019-06-10T21:22:18.452Z,99.90
2019-06-10T21:24:46.695Z,99.90
2019-06-10T21:27:15.586Z,99.90
2019-06-10T21:29:47.155Z,99.90
2019-06-10T21:32:15.226Z,99.90
2019-06-10T21:34:45.157Z,99.90
2019-06-10T21:37:16.218Z,99.90
2019-06-10T21:39:47.768Z,99.90
2019-06-10T21:42:15.861Z,99.90
2019-06-10T21:44:45.864Z,99.90
2019-06-10T21:47:14.989Z,99.90
2019-06-10T21:49:44.302Z,99.90
2019-06-10T21:52:14.398Z,99.90
2019-06-10T21:54:45.210Z,99.90
2019-06-10T21:57:15.228Z,99.90
2019-06-10T21:59:45.465Z,99.90
2019-06-10T22:02:14.670Z,99.90
2019-06-10T22:04:44.811Z,99.90
2019-06-10T22:07:14.198Z,99.90
2019-06-10T22:09:44.116Z,99.90
2019-06-10T22:12:13.336Z,99.90
2019-06-10T22:14:42.345Z,99.90
2019-06-10T22:17:12.250Z,99.90
2019-06-10T22:19:42.722Z,99.90
2019-06-10T22:22:12.962Z,99.90
2019-06-10T22:24:42.458Z,99.90
2019-06-10T22:27:12.980Z,99.90
2019-06-10T22:29:42.676Z,99.90
2019-06-10T22:32:12.991Z,99.90
2019-06-10T22:34:42.182Z,99.90
2019-06-10T22:37:12.482Z,99.90
2019-06-10T22:39:42.117Z,99.90
2019-06-10T22:42:12.247Z,99.90
2019-06-10T22:44:42.460Z,99.90
2019-06-10T22:47:12.169Z,99.90
2019-06-10T22:49:43.214Z,99.90
2019-06-10T22:52:12.629Z,99.90
2019-06-10T22:54:43.056Z,99.90
2019-06-10T22:57:12.937Z,99.90
2019-06-10T22:59:42.529Z,99.90
2019-06-10T23:02:13.166Z,99.90
2019-06-10T23:04:43.437Z,99.90
2019-06-10T23:07:13.282Z,99.90
2019-06-10T23:09:42.954Z,99.90
2019-06-10T23:12:14.329Z,99.90
2019-06-10T23:14:43.483Z,99.90
2019-06-10T23:17:15.756Z,99.90
2019-06-10T23:19:44.658Z,99.90
2019-06-10T23:22:13.538Z,99.90
2019-06-10T23:24:42.696Z,99.90
2019-06-10T23:27:13.060Z,99.90
2019-06-10T23:29:42.732Z,99.90
2019-06-10T23:32:12.950Z,99.90
2019-06-10T23:34:42.438Z,99.90
2019-06-10T23:37:12.603Z,99.90
2019-06-10T23:39:42.600Z,99.90
2019-06-10T23:42:12.214Z,99.90
2019-06-10T23:44:41.226Z,99.90
2019-06-10T23:47:12.611Z,99.90
2019-06-10T23:49:42.442Z,99.90
2019-06-10T23:52:12.825Z,99.90
2019-06-10T23:54:41.990Z,99.90
2019-06-10T23:57:12.918Z,99.90
2019-06-10T23:59:42.749Z,99.90
